createdAt,value
2023-04-20T00:02:22.968Z,101870.16
2023-04-20T00:04:51.951Z,101855.91
2023-04-20T00:07:19.987Z,101863.28
2023-04-20T00:09:46.915Z,101858.59
2023-04-20T00:12:16.813Z,101857.41
2023-04-20T00:14:43.746Z,101856.09
2023-04-20T00:17:11.986Z,101859.97
2023-04-20T00:19:39.226Z,101857.00
2023-04-20T00:22:06.250Z,101868.59
2023-04-20T00:24:34.240Z,101838.94
2023-04-20T00:27:01.250Z,101836.41
2023-04-20T00:29:29.254Z,101852.66
2023-04-20T00:31:56.151Z,101840.13
2023-04-20T00:34:23.107Z,101839.19
2023-04-20T00:36:52.100Z,101838.28
2023-04-20T00:39:20.320Z,101833.28
2023-04-20T00:41:47.339Z,101827.78
2023-04-20T00:44:14.391Z,101828.31
2023-04-20T00:46:41.978Z,101829.31
2023-04-20T00:49:09.586Z,101830.78
2023-04-20T00:51:36.890Z,101833.78
2023-04-20T00:54:03.895Z,101833.63
2023-04-20T00:56:31.036Z,101847.28
2023-04-20T00:58:59.151Z,101832.50
2023-04-20T01:01:26.310Z,101827.50
2023-04-20T01:03:54.183Z,101830.59
2023-04-20T01:06:23.462Z,101826.19
2023-04-20T01:08:52.095Z,101825.50
2023-04-20T01:11:26.275Z,101822.34
2023-04-20T01:13:53.229Z,101818.88
2023-04-20T01:16:20.300Z,101822.59
2023-04-20T01:18:51.194Z,101807.63
2023-04-20T01:21:23.777Z,101829.69
2023-04-20T01:23:51.050Z,101809.09
2023-04-20T01:26:20.286Z,101802.69
2023-04-20T01:28:47.255Z,101814.63
2023-04-20T01:31:14.784Z,101813.22
2023-04-20T01:33:41.809Z,101810.66
2023-04-20T01:36:09.791Z,101810.00
2023-04-20T01:38:37.438Z,101806.44
2023-04-20T01:41:13.675Z,101814.38
2023-04-20T01:43:43.718Z,101812.78
2023-04-20T01:46:10.675Z,101807.41
2023-04-20T01:48:37.648Z,101802.97
2023-04-20T01:51:04.754Z,101808.44
2023-04-20T01:53:31.666Z,101801.81
2023-04-20T01:55:58.977Z,101803.34
2023-04-20T01:58:26.089Z,101806.03
2023-04-20T02:01:03.329Z,101787.13
2023-04-20T02:03:35.819Z,101784.44
2023-04-20T02:06:02.938Z,101795.22
2023-04-20T02:08:30.236Z,101795.22
2023-04-20T02:10:57.131Z,101791.88
2023-04-20T02:13:24.073Z,101786.09
2023-04-20T02:15:51.172Z,101786.47
2023-04-20T02:18:18.192Z,101787.19
2023-04-20T02:20:46.219Z,101786.94
2023-04-20T02:23:13.543Z,101794.16
2023-04-20T02:25:40.448Z,101791.47
2023-04-20T02:28:14.532Z,101790.00
2023-04-20T02:30:42.504Z,101791.94
2023-04-20T02:33:09.881Z,101790.13
2023-04-20T02:35:47.778Z,101789.13
2023-04-20T02:38:14.977Z,101784.00
2023-04-20T02:40:41.919Z,101783.31
2023-04-20T02:43:14.553Z,101779.03
2023-04-20T02:45:44.202Z,101782.50
2023-04-20T02:48:14.527Z,101791.00
2023-04-20T02:50:43.055Z,101787.38
2023-04-20T02:53:10.113Z,101800.41
2023-04-20T02:55:39.801Z,101788.81
2023-04-20T02:58:07.218Z,101796.69
2023-04-20T03:00:34.316Z,101786.81
2023-04-20T03:03:03.884Z,101767.63
2023-04-20T03:05:31.112Z,101772.75
2023-04-20T03:07:58.157Z,101770.59
2023-04-20T03:10:25.100Z,101770.41
2023-04-20T03:12:52.048Z,101773.56
2023-04-20T03:15:19.251Z,101767.63
2023-04-20T03:17:47.147Z,101768.34
2023-04-20T03:20:14.813Z,101772.50
2023-04-20T03:22:41.845Z,101768.69
2023-04-20T03:25:09.246Z,101762.25
2023-04-20T03:27:36.196Z,101777.97
2023-04-20T03:30:03.273Z,101766.56
2023-04-20T03:32:32.654Z,101764.09
2023-04-20T03:35:03.621Z,101765.94
2023-04-20T03:37:31.336Z,101764.06
2023-04-20T03:39:59.329Z,101758.47
2023-04-20T03:42:26.282Z,101765.38
2023-04-20T03:44:53.200Z,101766.38
2023-04-20T03:47:20.421Z,101748.34
2023-04-20T03:49:47.453Z,101745.41
2023-04-20T03:52:14.347Z,101745.25
2023-04-20T03:54:41.286Z,101745.22
2023-04-20T03:57:08.234Z,101739.78
2023-04-20T03:59:35.246Z,101734.66
2023-04-20T04:02:02.844Z,101733.19
2023-04-20T04:04:30.111Z,101736.00
2023-04-20T04:06:57.326Z,101734.03
2023-04-20T04:09:26.618Z,101737.94
2023-04-20T04:11:53.575Z,101726.91
2023-04-20T04:14:20.830Z,101732.13
2023-04-20T04:16:47.742Z,101732.38
2023-04-20T04:19:15.033Z,101738.84
2023-04-20T04:21:42.106Z,101731.94
2023-04-20T04:24:09.483Z,101726.03
2023-04-20T04:26:37.548Z,101723.88
2023-04-20T04:29:04.577Z,101713.69
2023-04-20T04:31:32.896Z,101716.13
2023-04-20T04:33:59.982Z,101705.56
2023-04-20T04:36:27.110Z,101712.06
2023-04-20T04:38:55.384Z,101710.72
2023-04-20T04:41:23.529Z,101711.19
2023-04-20T04:43:50.982Z,101702.47
2023-04-20T04:46:18.033Z,101709.50
2023-04-20T04:48:46.618Z,101693.69
2023-04-20T04:51:13.577Z,101688.44
2023-04-20T04:53:44.995Z,101697.69
2023-04-20T04:56:13.277Z,101690.03
2023-04-20T04:58:40.378Z,101680.56
2023-04-20T05:01:07.346Z,101686.72
2023-04-20T05:03:34.516Z,101677.75
2023-04-20T05:06:01.694Z,101672.56
2023-04-20T05:08:28.711Z,101679.34
2023-04-20T05:10:57.289Z,101684.28
2023-04-20T05:13:24.325Z,101692.69
2023-04-20T05:15:51.294Z,101693.06
2023-04-20T05:18:18.257Z,101689.06
2023-04-20T05:20:45.330Z,101695.03
2023-04-20T05:23:12.676Z,101688.41
2023-04-20T05:25:39.676Z,101685.94
2023-04-20T05:28:06.718Z,101678.22
2023-04-20T05:30:33.755Z,101679.72
2023-04-20T05:33:00.789Z,101678.47
2023-04-20T05:35:27.811Z,101670.19
2023-04-20T05:37:54.754Z,101675.09
2023-04-20T05:40:21.786Z,101653.44
2023-04-20T05:42:48.714Z,101662.22
2023-04-20T05:45:15.764Z,101655.31
2023-04-20T05:47:42.818Z,101647.53
2023-04-20T05:50:10.497Z,101635.25
2023-04-20T05:52:37.464Z,101636.03
2023-04-20T05:55:07.970Z,101651.84
2023-04-20T05:57:35.049Z,101639.84
2023-04-20T06:00:03.699Z,101641.31
2023-04-20T06:02:30.682Z,101639.63
2023-04-20T06:04:57.918Z,101627.97
2023-04-20T06:07:24.859Z,101628.47
2023-04-20T06:09:51.852Z,101628.06
2023-04-20T06:12:18.750Z,101624.84
2023-04-20T06:14:45.821Z,101616.41
2023-04-20T06:17:12.808Z,101633.78
2023-04-20T06:19:39.782Z,101619.75
2023-04-20T06:22:08.400Z,101625.88
2023-04-20T06:24:37.038Z,101621.44
2023-04-20T06:27:04.165Z,101614.69
2023-04-20T06:29:31.300Z,101623.47
2023-04-20T06:31:58.219Z,101620.44
2023-04-20T06:34:25.333Z,101615.88
2023-04-20T06:36:52.309Z,101620.31
2023-04-20T06:39:19.501Z,101610.81
2023-04-20T06:41:46.614Z,101606.09
2023-04-20T06:44:13.612Z,101601.34
2023-04-20T06:46:40.599Z,101612.00
2023-04-20T06:49:07.571Z,101602.34
2023-04-20T06:51:34.706Z,101597.94
2023-04-20T06:54:01.649Z,101602.56
2023-04-20T06:56:28.576Z,101601.41
2023-04-20T06:58:55.500Z,101595.22
2023-04-20T07:01:22.493Z,101575.81
2023-04-20T07:03:50.371Z,101590.94
2023-04-20T07:06:17.551Z,101596.63
2023-04-20T07:08:44.624Z,101586.28
2023-04-20T07:11:11.713Z,101587.78
2023-04-20T07:13:38.677Z,101594.56
2023-04-20T07:16:06.547Z,101594.03
2023-04-20T07:18:35.282Z,101591.09
2023-04-20T07:21:02.716Z,101587.38
2023-04-20T07:23:29.671Z,101574.97
2023-04-20T07:25:56.590Z,101580.50
2023-04-20T07:28:23.488Z,101567.03
2023-04-20T07:30:50.418Z,101576.09
2023-04-20T07:33:17.303Z,101563.63
2023-04-20T07:35:44.401Z,101562.91
2023-04-20T07:38:11.502Z,101576.47
2023-04-20T07:40:38.423Z,101575.53
2023-04-20T07:43:05.606Z,101572.69
2023-04-20T07:45:32.553Z,101564.31
2023-04-20T07:48:01.584Z,101570.06
2023-04-20T07:50:28.816Z,101575.34
2023-04-20T07:52:55.759Z,101576.75
2023-04-20T07:55:22.872Z,101567.38
2023-04-20T07:57:50.345Z,101583.06
2023-04-20T08:00:18.699Z,101573.00
2023-04-20T08:02:45.906Z,101572.94
2023-04-20T08:05:13.614Z,101568.25
2023-04-20T08:07:40.934Z,101561.66
2023-04-20T08:10:08.754Z,101565.38
2023-04-20T08:12:36.335Z,101567.00
2023-04-20T08:15:06.394Z,101569.28
2023-04-20T08:17:34.371Z,101558.09
2023-04-20T08:20:01.411Z,101559.91
2023-04-20T08:22:30.202Z,101556.53
2023-04-20T08:24:58.149Z,101562.06
2023-04-20T08:27:25.977Z,101548.81
2023-04-20T08:29:53.039Z,101553.13
2023-04-20T08:32:23.778Z,101547.56
2023-04-20T08:34:51.003Z,101555.53
2023-04-20T08:37:18.211Z,101552.00
2023-04-20T08:39:45.136Z,101549.00
2023-04-20T08:42:12.303Z,101540.69
2023-04-20T08:44:39.334Z,101542.31
2023-04-20T08:47:06.391Z,101528.97
2023-04-20T08:49:34.168Z,101533.25
2023-04-20T08:52:01.154Z,101533.63
2023-04-20T08:54:28.136Z,101530.47
2023-04-20T08:56:55.254Z,101538.47
2023-04-20T08:59:22.391Z,101537.03
2023-04-20T09:01:49.572Z,101548.88
2023-04-20T09:04:17.324Z,101529.75
2023-04-20T09:06:46.817Z,101530.38
2023-04-20T09:09:14.114Z,101527.81
2023-04-20T09:11:41.201Z,101525.00
2023-04-20T09:14:12.523Z,101530.56
2023-04-20T09:16:52.095Z,101516.34
2023-04-20T09:19:26.792Z,101513.53
2023-04-20T09:21:57.538Z,101514.22
2023-04-20T09:24:34.816Z,101511.53
2023-04-20T09:27:23.788Z,101502.94
2023-04-20T09:30:01.423Z,101500.91
2023-04-20T09:32:29.256Z,101498.25
2023-04-20T09:34:57.131Z,101501.50
2023-04-20T09:37:24.330Z,101488.28
2023-04-20T09:39:51.683Z,101485.81
2023-04-20T09:42:18.799Z,101493.31
2023-04-20T09:44:46.034Z,101489.28
2023-04-20T09:47:18.972Z,101485.69
2023-04-20T09:49:49.555Z,101473.53
2023-04-20T09:52:19.599Z,101472.31
2023-04-20T09:54:46.832Z,101470.88
2023-04-20T09:57:14.949Z,101471.38
2023-04-20T09:59:47.490Z,101476.38
2023-04-20T10:02:15.368Z,101462.75
2023-04-20T10:05:11.731Z,101464.31
2023-04-20T10:07:38.738Z,101469.56
2023-04-20T10:10:12.439Z,101461.22
2023-04-20T10:12:54.279Z,101466.47
2023-04-20T10:15:22.000Z,101452.31
2023-04-20T10:17:49.680Z,101447.56
2023-04-20T10:20:26.154Z,101442.50
2023-04-20T10:22:55.306Z,101453.31
2023-04-20T10:25:27.401Z,101449.34
2023-04-20T10:28:01.709Z,101436.56
2023-04-20T10:30:29.512Z,101441.78
2023-04-20T10:33:11.738Z,101438.53
2023-04-20T10:35:59.008Z,101425.28
2023-04-20T10:38:36.098Z,101423.44
2023-04-20T10:41:11.945Z,101423.25
2023-04-20T10:43:42.265Z,101413.50
2023-04-20T10:46:24.115Z,101413.88
2023-04-20T10:48:55.761Z,101410.19
2023-04-20T10:51:23.834Z,101412.84
2023-04-20T10:54:06.026Z,101417.19
2023-04-20T10:56:49.519Z,101428.06
2023-04-20T10:59:22.832Z,101415.72
2023-04-20T11:01:51.589Z,101413.25
2023-04-20T11:04:19.304Z,101408.88
2023-04-20T11:06:50.852Z,101400.13
2023-04-20T11:09:26.715Z,101391.13
2023-04-20T11:12:02.454Z,101396.38
2023-04-20T11:14:31.189Z,101390.28
2023-04-20T11:16:58.258Z,101400.22
2023-04-20T11:19:31.529Z,101389.81
2023-04-20T11:21:59.207Z,101389.84
2023-04-20T11:24:29.306Z,101395.88
2023-04-20T11:26:58.040Z,101382.59
2023-04-20T11:29:36.325Z,101382.44
2023-04-20T11:32:10.181Z,101381.28
2023-04-20T11:34:39.682Z,101380.59
2023-04-20T11:37:10.638Z,101384.28
2023-04-20T11:39:38.493Z,101389.09
2023-04-20T11:42:06.355Z,101386.09
2023-04-20T11:44:34.368Z,101375.25
2023-04-20T11:47:01.965Z,101366.41
2023-04-20T11:49:29.591Z,101365.28
2023-04-20T11:51:56.544Z,101361.53
2023-04-20T11:54:24.177Z,101357.75
2023-04-20T11:56:51.570Z,101367.81
2023-04-20T11:59:20.330Z,101359.59
2023-04-20T12:01:48.002Z,101362.97
2023-04-20T12:04:16.483Z,101359.53
2023-04-20T12:06:44.683Z,101356.56
2023-04-20T12:09:11.575Z,101349.38
2023-04-20T12:11:38.501Z,101356.75
2023-04-20T12:14:05.552Z,101338.13
2023-04-20T12:16:32.621Z,101348.00
2023-04-20T12:18:59.656Z,101346.59
2023-04-20T12:21:27.417Z,101347.16
2023-04-20T12:23:54.465Z,101357.00
2023-04-20T12:26:22.671Z,101356.56
2023-04-20T12:28:52.475Z,101334.75
2023-04-20T12:31:19.656Z,101330.50
2023-04-20T12:33:46.628Z,101337.50
2023-04-20T12:36:13.592Z,101329.06
2023-04-20T12:38:40.589Z,101333.03
2023-04-20T12:41:07.931Z,101335.50
2023-04-20T12:43:34.857Z,101344.50
2023-04-20T12:46:01.804Z,101342.81
2023-04-20T12:48:28.732Z,101337.25
2023-04-20T12:50:55.669Z,101328.56
2023-04-20T12:53:22.586Z,101337.78
2023-04-20T12:55:55.014Z,101336.88
2023-04-20T12:58:27.526Z,101341.75
2023-04-20T13:00:54.626Z,101332.13
2023-04-20T13:03:21.931Z,101335.28
2023-04-20T13:05:49.091Z,101332.63
2023-04-20T13:08:16.325Z,101329.09
2023-04-20T13:10:43.538Z,101331.28
2023-04-20T13:13:13.824Z,101330.34
2023-04-20T13:15:40.884Z,101335.50
2023-04-20T13:18:09.804Z,101328.44
2023-04-20T13:20:36.991Z,101325.56
2023-04-20T13:23:04.565Z,101322.41
2023-04-20T13:25:33.440Z,101331.59
2023-04-20T13:28:02.498Z,101323.28
2023-04-20T13:30:29.573Z,101320.69
2023-04-20T13:32:56.614Z,101328.63
2023-04-20T13:35:24.156Z,101321.03
2023-04-20T13:37:51.597Z,101298.91
2023-04-20T13:40:18.605Z,101293.97
2023-04-20T13:42:45.557Z,101297.97
2023-04-20T13:45:13.063Z,101293.16
2023-04-20T13:47:40.576Z,101281.91
2023-04-20T13:50:09.012Z,101284.97
2023-04-20T13:52:36.484Z,101282.06
2023-04-20T13:55:05.500Z,101271.44
2023-04-20T13:57:32.473Z,101268.91
2023-04-20T14:00:01.005Z,101271.16
2023-04-20T14:02:29.290Z,101279.41
2023-04-20T14:04:56.833Z,101269.75
2023-04-20T14:07:24.211Z,101280.22
2023-04-20T14:09:52.834Z,101279.00
2023-04-20T14:12:20.026Z,101275.63
2023-04-20T14:14:46.983Z,101275.31
2023-04-20T14:17:14.684Z,101277.69
2023-04-20T14:19:41.779Z,101274.88
2023-04-20T14:22:08.690Z,101279.41
2023-04-20T14:24:38.158Z,101267.44
2023-04-20T14:27:05.094Z,101277.19
2023-04-20T14:29:32.031Z,101269.38
2023-04-20T14:31:59.009Z,101273.22
2023-04-20T14:34:26.000Z,101262.84
2023-04-20T14:36:52.896Z,101268.34
2023-04-20T14:39:23.472Z,101271.72
2023-04-20T14:41:50.460Z,101297.00
2023-04-20T14:44:17.733Z,101299.22
2023-04-20T14:46:45.002Z,101298.59
2023-04-20T14:49:12.163Z,101299.44
2023-04-20T14:51:39.116Z,101302.78
2023-04-20T14:54:06.120Z,101299.25
2023-04-20T14:56:34.236Z,101295.56
2023-04-20T14:59:01.430Z,101286.13
2023-04-20T15:01:29.219Z,101273.88
2023-04-20T15:03:56.354Z,101273.16
2023-04-20T15:06:23.698Z,101266.50
2023-04-20T15:08:53.422Z,101265.47
2023-04-20T15:11:20.630Z,101262.16
2023-04-20T15:13:49.467Z,101264.00
2023-04-20T15:16:16.388Z,101246.31
2023-04-20T15:18:43.440Z,101255.59
2023-04-20T15:21:10.969Z,101243.56
2023-04-20T15:23:37.979Z,101257.66
2023-04-20T15:26:05.327Z,101243.03
2023-04-20T15:28:32.237Z,101236.69
2023-04-20T15:30:59.151Z,101236.88
2023-04-20T15:33:26.104Z,101242.09
2023-04-20T15:35:53.069Z,101233.03
2023-04-20T15:38:20.166Z,101221.69
2023-04-20T15:40:47.082Z,101238.66
2023-04-20T15:43:13.988Z,101221.13
2023-04-20T15:45:42.812Z,101221.94
2023-04-20T15:48:11.455Z,101220.53
2023-04-20T15:50:38.416Z,101229.00
2023-04-20T15:53:05.342Z,101216.22
2023-04-20T15:55:34.637Z,101223.16
2023-04-20T15:58:01.716Z,101219.38
2023-04-20T16:00:28.860Z,101227.47
2023-04-20T16:02:56.098Z,101214.53
2023-04-20T16:05:23.340Z,101224.22
2023-04-20T16:07:50.264Z,101227.56
2023-04-20T16:10:17.335Z,101228.09
2023-04-20T16:12:44.369Z,101232.91
2023-04-20T16:15:11.695Z,101222.25
2023-04-20T16:17:38.698Z,101232.53
2023-04-20T16:20:06.777Z,101235.81
2023-04-20T16:22:33.667Z,101242.91
2023-04-20T16:25:00.689Z,101236.09
2023-04-20T16:27:27.825Z,101232.66
2023-04-20T16:29:54.999Z,101237.88
2023-04-20T16:32:22.236Z,101234.66
2023-04-20T16:34:49.172Z,101228.16
2023-04-20T16:37:16.125Z,101229.88
2023-04-20T16:39:43.698Z,101234.00
2023-04-20T16:42:10.775Z,101222.03
2023-04-20T16:44:39.096Z,101229.72
2023-04-20T16:47:08.245Z,101227.03
2023-04-20T16:49:35.888Z,101226.06
2023-04-20T16:52:02.794Z,101236.25
2023-04-20T16:54:29.747Z,101227.91
2023-04-20T16:56:57.483Z,101247.03
2023-04-20T16:59:24.497Z,101228.09
2023-04-20T17:01:51.530Z,101221.13
2023-04-20T17:04:18.926Z,101222.41
2023-04-20T17:06:48.618Z,101224.28
2023-04-20T17:09:15.523Z,101227.44
2023-04-20T17:11:42.412Z,101234.38
2023-04-20T17:14:09.716Z,101232.88
2023-04-20T17:16:36.644Z,101228.09
2023-04-20T17:19:04.175Z,101232.03
2023-04-20T17:21:31.162Z,101227.38
2023-04-20T17:23:58.113Z,101229.19
2023-04-20T17:26:25.149Z,101239.56
2023-04-20T17:28:55.682Z,101243.84
2023-04-20T17:31:22.693Z,101240.22
2023-04-20T17:33:49.789Z,101256.63
2023-04-20T17:36:16.835Z,101239.31
2023-04-20T17:38:43.881Z,101246.41
2023-04-20T17:41:10.873Z,101243.56
2023-04-20T17:43:40.369Z,101242.09
2023-04-20T17:46:08.110Z,101238.91
2023-04-20T17:48:35.262Z,101240.78
2023-04-20T17:51:02.284Z,101245.50
2023-04-20T17:53:29.226Z,101247.66
2023-04-20T17:55:56.168Z,101254.56
2023-04-20T17:58:24.889Z,101238.84
2023-04-20T18:00:51.933Z,101256.66
2023-04-20T18:03:20.145Z,101249.03
2023-04-20T18:05:47.463Z,101252.53
2023-04-20T18:08:15.534Z,101253.69
2023-04-20T18:10:42.452Z,101253.03
2023-04-20T18:13:09.420Z,101254.03
2023-04-20T18:15:36.416Z,101262.00
2023-04-20T18:18:03.466Z,101254.38
2023-04-20T18:20:32.347Z,101261.13
2023-04-20T18:22:59.562Z,101258.63
2023-04-20T18:25:26.564Z,101251.63
2023-04-20T18:27:53.568Z,101262.16
2023-04-20T18:30:20.548Z,101254.84
2023-04-20T18:32:47.596Z,101249.56
2023-04-20T18:35:14.709Z,101254.25
2023-04-20T18:37:41.643Z,101249.19
2023-04-20T18:40:09.297Z,101251.41
2023-04-20T18:42:36.197Z,101253.66
2023-04-20T18:45:03.905Z,101252.97
2023-04-20T18:47:30.878Z,101260.69
2023-04-20T18:49:57.890Z,101250.28
2023-04-20T18:52:24.886Z,101251.75
2023-04-20T18:54:51.933Z,101256.47
2023-04-20T18:57:21.574Z,101243.84
2023-04-20T18:59:48.555Z,101256.00
2023-04-20T19:02:15.627Z,101260.22
2023-04-20T19:04:43.835Z,101253.84
2023-04-20T19:07:10.790Z,101260.56
2023-04-20T19:09:37.725Z,101270.22
2023-04-20T19:12:05.699Z,101255.59
2023-04-20T19:14:32.672Z,101253.72
2023-04-20T19:17:02.045Z,101245.69
2023-04-20T19:19:29.212Z,101252.63
2023-04-20T19:21:57.746Z,101249.56
2023-04-20T19:24:24.755Z,101249.13
2023-04-20T19:26:51.801Z,101251.28
2023-04-20T19:29:18.767Z,101248.13
2023-04-20T19:31:45.771Z,101248.69
2023-04-20T19:34:13.498Z,101248.59
2023-04-20T19:36:41.228Z,101251.31
2023-04-20T19:39:09.480Z,101257.84
2023-04-20T19:41:36.393Z,101248.38
2023-04-20T19:44:06.666Z,101253.25
2023-04-20T19:46:34.060Z,101242.16
2023-04-20T19:49:01.857Z,101232.56
2023-04-20T19:51:28.930Z,101238.03
2023-04-20T19:53:59.139Z,101245.97
2023-04-20T19:56:26.610Z,101241.38
2023-04-20T19:58:53.615Z,101237.50
2023-04-20T20:01:20.753Z,101252.66
2023-04-20T20:03:47.900Z,101246.66
2023-04-20T20:06:14.939Z,101237.56
2023-04-20T20:08:42.712Z,101241.28
2023-04-20T20:11:09.872Z,101248.63
2023-04-20T20:13:36.851Z,101243.06
2023-04-20T20:16:04.100Z,101224.13
2023-04-20T20:18:31.258Z,101233.00
2023-04-20T20:20:58.168Z,101219.28
2023-04-20T20:23:25.316Z,101226.31
2023-04-20T20:25:52.295Z,101225.63
2023-04-20T20:28:19.238Z,101230.28
2023-04-20T20:30:46.246Z,101229.31
2023-04-20T20:33:13.416Z,101217.53
2023-04-20T20:35:40.896Z,101216.44
2023-04-20T20:38:08.944Z,101218.66
2023-04-20T20:40:39.761Z,101208.22
2023-04-20T20:43:06.857Z,101209.16
2023-04-20T20:45:33.834Z,101201.41
2023-04-20T20:48:01.044Z,101198.25
2023-04-20T20:50:28.177Z,101214.59
2023-04-20T20:52:55.398Z,101205.75
2023-04-20T20:55:22.549Z,101200.69
2023-04-20T20:57:49.450Z,101195.22
2023-04-20T21:00:16.630Z,101198.47
2023-04-20T21:02:43.646Z,101188.28
2023-04-20T21:05:11.298Z,101197.34
2023-04-20T21:07:38.830Z,101202.78
2023-04-20T21:10:06.497Z,101192.63
2023-04-20T21:12:33.444Z,101196.66
2023-04-20T21:15:00.582Z,101200.47
2023-04-20T21:17:27.531Z,101198.06
2023-04-20T21:19:54.556Z,101200.38
2023-04-20T21:22:22.579Z,101195.19
2023-04-20T21:24:49.606Z,101197.34
2023-04-20T21:27:16.527Z,101193.94
2023-04-20T21:29:43.446Z,101185.44
2023-04-20T21:32:10.437Z,101199.28
2023-04-20T21:34:37.396Z,101195.25
2023-04-20T21:37:05.591Z,101194.19
2023-04-20T21:39:32.848Z,101184.31
2023-04-20T21:41:59.983Z,101194.75
2023-04-20T21:44:27.559Z,101189.78
2023-04-20T21:46:54.675Z,101200.25
2023-04-20T21:49:21.815Z,101197.19
2023-04-20T21:51:49.079Z,101196.00
2023-04-20T21:54:16.026Z,101193.91
2023-04-20T21:56:43.241Z,101197.53
2023-04-20T21:59:10.210Z,101191.94
2023-04-20T22:01:37.201Z,101187.72
2023-04-20T22:04:04.614Z,101196.47
2023-04-20T22:06:34.820Z,101202.84
2023-04-20T22:09:02.263Z,101197.47
2023-04-20T22:11:29.681Z,101192.47
2023-04-20T22:13:57.339Z,101202.47
2023-04-20T22:16:24.509Z,101205.28
2023-04-20T22:18:51.540Z,101211.22
2023-04-20T22:21:18.479Z,101211.94
2023-04-20T22:23:45.453Z,101216.16
2023-04-20T22:26:12.398Z,101208.38
2023-04-20T22:28:39.321Z,101215.91
2023-04-20T22:31:06.312Z,101209.84
2023-04-20T22:33:33.311Z,101214.09
2023-04-20T22:36:00.271Z,101208.69
2023-04-20T22:38:27.256Z,101210.50
2023-04-20T22:40:54.190Z,101204.69
2023-04-20T22:43:21.632Z,101209.53
2023-04-20T22:45:48.931Z,101204.69
2023-04-20T22:48:15.913Z,101200.81
2023-04-20T22:50:42.953Z,101190.06
2023-04-20T22:53:10.040Z,101188.44
2023-04-20T22:55:37.085Z,101188.16
2023-04-20T22:58:05.214Z,101179.25
2023-04-20T23:00:32.234Z,101188.47
2023-04-20T23:02:59.477Z,101197.44
2023-04-20T23:05:26.646Z,101180.81
2023-04-20T23:07:53.934Z,101189.56
2023-04-20T23:10:21.094Z,101187.00
2023-04-20T23:12:49.275Z,101187.09
2023-04-20T23:15:16.321Z,101188.84
2023-04-20T23:17:43.402Z,101181.25
2023-04-20T23:20:13.623Z,101192.38
2023-04-20T23:22:41.031Z,101183.09
2023-04-20T23:25:10.008Z,101181.91
2023-04-20T23:27:37.159Z,101185.16
2023-04-20T23:30:04.779Z,101181.63
2023-04-20T23:32:31.711Z,101180.69
2023-04-20T23:34:58.733Z,101175.75
2023-04-20T23:37:25.728Z,101175.78
2023-04-20T23:39:52.708Z,101181.44
2023-04-20T23:42:19.609Z,101173.41
2023-04-20T23:44:46.642Z,101184.63
2023-04-20T23:47:15.502Z,101171.31
2023-04-20T23:49:42.423Z,101178.25
2023-04-20T23:52:09.329Z,101168.56
2023-04-20T23:54:36.311Z,101165.06
2023-04-20T23:57:03.290Z,101168.16
2023-04-20T23:59:30.371Z,101158.69
